Terminal Aerodrome Forecast
Issued by NWS

Home | Current Version | Previous Version | Text Only | Print | Product List | Glossary Off
Versions: 1 2 3 4 5 6 7 8 9 10 11 12 13 14 15

000
FTUS45 KGGW 280500
TAFSDY
TAF
KSDY 280520Z 2806/2906 23020KT P6SM -SHRA VCTS BKN025 BKN035CB
     FM281200 25024G33KT 5SM RA BKN028 BKN040
     FM281800 27036G50KT 5SM RA BKN028 OVC030
     FM290000 30033G48KT P6SM VCSH BKN070
     FM290300 29024G34KT P6SM VCSH BKN070
      AMD LTD TO CLD VIS AND WIND=

USA.gov is the U.S. government's official web portal to all federal, state and local government web resources and services.